sensor_id;sensor_type;location;lat;lon;timestamp;temperature;humidity
18229;DHT22;9239;50.932;3.142;2023-07-28T00:02:20;18.10;99.90
18229;DHT22;9239;50.932;3.142;2023-07-28T00:04:46;18.10;99.90
18229;DHT22;9239;50.932;3.142;2023-07-28T00:07:13;18.10;99.90
18229;DHT22;9239;50.932;3.142;2023-07-28T00:09:40;18.10;99.90
18229;DHT22;9239;50.932;3.142;2023-07-28T00:12:08;18.10;99.90
18229;DHT22;9239;50.932;3.142;2023-07-28T00:14:34;18.20;99.90
18229;DHT22;9239;50.932;3.142;2023-07-28T00:17:03;18.10;99.90
18229;DHT22;9239;50.932;3.142;2023-07-28T00:19:30;18.10;99.90
18229;DHT22;9239;50.932;3.142;2023-07-28T00:21:57;18.20;99.90
18229;DHT22;9239;50.932;3.142;2023-07-28T00:24:24;18.10;99.90
18229;DHT22;9239;50.932;3.142;2023-07-28T00:26:51;18.10;99.90
18229;DHT22;9239;50.932;3.142;2023-07-28T00:29:17;18.10;99.90
18229;DHT22;9239;50.932;3.142;2023-07-28T00:31:44;18.10;99.90
18229;DHT22;9239;50.932;3.142;2023-07-28T00:34:13;18.10;99.90
18229;DHT22;9239;50.932;3.142;2023-07-28T00:36:39;18.10;99.90
18229;DHT22;9239;50.932;3.142;2023-07-28T00:39:07;18.10;99.90
18229;DHT22;9239;50.932;3.142;2023-07-28T00:41:35;18.10;99.90
18229;DHT22;9239;50.932;3.142;2023-07-28T00:44:02;18.10;99.90
18229;DHT22;9239;50.932;3.142;2023-07-28T00:46:29;18.10;99.90
18229;DHT22;9239;50.932;3.142;2023-07-28T00:48:57;18.10;99.90
18229;DHT22;9239;50.932;3.142;2023-07-28T00:51:25;18.10;99.90
18229;DHT22;9239;50.932;3.142;2023-07-28T00:53:52;18.10;99.90
18229;DHT22;9239;50.932;3.142;2023-07-28T00:56:20;18.10;99.90
18229;DHT22;9239;50.932;3.142;2023-07-28T00:58:48;18.20;99.90
18229;DHT22;9239;50.932;3.142;2023-07-28T01:01:15;18.10;99.90
18229;DHT22;9239;50.932;3.142;2023-07-28T01:03:42;18.10;99.90
18229;DHT22;9239;50.932;3.142;2023-07-28T01:06:13;18.10;99.90
18229;DHT22;9239;50.932;3.142;2023-07-28T01:08:49;18.20;99.90
18229;DHT22;9239;50.932;3.142;2023-07-28T01:11:17;18.10;99.90
18229;DHT22;9239;50.932;3.142;2023-07-28T01:13:45;18.10;99.90
18229;DHT22;9239;50.932;3.142;2023-07-28T01:16:12;18.10;99.90
18229;DHT22;9239;50.932;3.142;2023-07-28T01:18:40;18.10;99.90
18229;DHT22;9239;50.932;3.142;2023-07-28T01:21:12;18.00;99.90
18229;DHT22;9239;50.932;3.142;2023-07-28T01:23:50;18.10;99.90
18229;DHT22;9239;50.932;3.142;2023-07-28T01:26:27;18.10;99.90
18229;DHT22;9239;50.932;3.142;2023-07-28T01:28:55;18.10;99.90
18229;DHT22;9239;50.932;3.142;2023-07-28T01:31:22;18.10;99.90
18229;DHT22;9239;50.932;3.142;2023-07-28T01:33:49;18.10;99.90
18229;DHT22;9239;50.932;3.142;2023-07-28T01:36:16;18.10;99.90
18229;DHT22;9239;50.932;3.142;2023-07-28T01:38:43;18.20;99.90
18229;DHT22;9239;50.932;3.142;2023-07-28T01:41:10;18.20;99.90
18229;DHT22;9239;50.932;3.142;2023-07-28T01:43:38;18.20;99.90
18229;DHT22;9239;50.932;3.142;2023-07-28T01:46:07;18.20;99.90
18229;DHT22;9239;50.932;3.142;2023-07-28T01:48:34;18.20;99.90
18229;DHT22;9239;50.932;3.142;2023-07-28T01:51:01;18.20;99.90
18229;DHT22;9239;50.932;3.142;2023-07-28T01:53:28;18.10;99.90
18229;DHT22;9239;50.932;3.142;2023-07-28T01:55:55;18.10;99.90
18229;DHT22;9239;50.932;3.142;2023-07-28T01:58:22;18.20;99.90
18229;DHT22;9239;50.932;3.142;2023-07-28T02:00:50;18.20;99.90
18229;DHT22;9239;50.932;3.142;2023-07-28T02:03:17;18.10;99.90
18229;DHT22;9239;50.932;3.142;2023-07-28T02:05:44;18.10;99.90
18229;DHT22;9239;50.932;3.142;2023-07-28T02:08:11;18.20;99.90
18229;DHT22;9239;50.932;3.142;2023-07-28T02:10:38;18.20;99.90
18229;DHT22;9239;50.932;3.142;2023-07-28T02:13:05;18.10;99.90
18229;DHT22;9239;50.932;3.142;2023-07-28T02:15:32;18.20;99.90
18229;DHT22;9239;50.932;3.142;2023-07-28T02:18:00;18.20;99.90
18229;DHT22;9239;50.932;3.142;2023-07-28T02:20:27;18.20;99.90
18229;DHT22;9239;50.932;3.142;2023-07-28T02:22:54;18.20;99.90
18229;DHT22;9239;50.932;3.142;2023-07-28T02:25:22;18.20;99.90
18229;DHT22;9239;50.932;3.142;2023-07-28T02:27:49;18.20;99.90
18229;DHT22;9239;50.932;3.142;2023-07-28T02:30:16;18.20;99.90
18229;DHT22;9239;50.932;3.142;2023-07-28T02:32:43;18.20;99.90
18229;DHT22;9239;50.932;3.142;2023-07-28T02:35:11;18.10;99.90
18229;DHT22;9239;50.932;3.142;2023-07-28T02:37:38;18.10;99.90
18229;DHT22;9239;50.932;3.142;2023-07-28T02:40:06;18.20;99.90
18229;DHT22;9239;50.932;3.142;2023-07-28T02:42:33;18.20;99.90
18229;DHT22;9239;50.932;3.142;2023-07-28T02:45:01;18.10;99.90
18229;DHT22;9239;50.932;3.142;2023-07-28T02:47:28;18.10;99.90
18229;DHT22;9239;50.932;3.142;2023-07-28T02:49:55;18.20;99.90
18229;DHT22;9239;50.932;3.142;2023-07-28T02:52:23;18.20;99.90
18229;DHT22;9239;50.932;3.142;2023-07-28T02:54:50;18.20;99.90
18229;DHT22;9239;50.932;3.142;2023-07-28T02:57:17;18.20;99.90
18229;DHT22;9239;50.932;3.142;2023-07-28T02:59:44;18.20;99.90
18229;DHT22;9239;50.932;3.142;2023-07-28T03:02:10;18.10;99.90
18229;DHT22;9239;50.932;3.142;2023-07-28T03:04:37;18.10;99.90
18229;DHT22;9239;50.932;3.142;2023-07-28T03:07:04;18.10;99.90
18229;DHT22;9239;50.932;3.142;2023-07-28T03:09:33;18.20;99.90
18229;DHT22;9239;50.932;3.142;2023-07-28T03:12:00;18.20;99.90
18229;DHT22;9239;50.932;3.142;2023-07-28T03:14:28;18.20;99.90
18229;DHT22;9239;50.932;3.142;2023-07-28T03:16:55;18.20;99.90
18229;DHT22;9239;50.932;3.142;2023-07-28T03:19:22;18.20;99.90
18229;DHT22;9239;50.932;3.142;2023-07-28T03:21:49;18.10;99.90
18229;DHT22;9239;50.932;3.142;2023-07-28T03:24:16;18.10;99.90
18229;DHT22;9239;50.932;3.142;2023-07-28T03:26:44;18.10;99.90
18229;DHT22;9239;50.932;3.142;2023-07-28T03:29:11;18.10;99.90
18229;DHT22;9239;50.932;3.142;2023-07-28T03:31:38;18.20;99.90
18229;DHT22;9239;50.932;3.142;2023-07-28T03:34:04;18.10;99.90
18229;DHT22;9239;50.932;3.142;2023-07-28T03:36:31;18.10;99.90
18229;DHT22;9239;50.932;3.142;2023-07-28T03:38:58;18.10;99.90
18229;DHT22;9239;50.932;3.142;2023-07-28T03:41:25;18.10;99.90
18229;DHT22;9239;50.932;3.142;2023-07-28T03:43:54;18.10;99.90
18229;DHT22;9239;50.932;3.142;2023-07-28T03:46:21;18.00;99.90
18229;DHT22;9239;50.932;3.142;2023-07-28T03:48:48;18.00;99.90
18229;DHT22;9239;50.932;3.142;2023-07-28T03:51:15;18.00;99.90
18229;DHT22;9239;50.932;3.142;2023-07-28T03:53:42;18.00;99.90
18229;DHT22;9239;50.932;3.142;2023-07-28T03:56:08;18.10;99.90
18229;DHT22;9239;50.932;3.142;2023-07-28T03:58:35;18.00;99.90
18229;DHT22;9239;50.932;3.142;2023-07-28T04:01:04;18.00;99.90
18229;DHT22;9239;50.932;3.142;2023-07-28T04:03:33;18.10;99.90
18229;DHT22;9239;50.932;3.142;2023-07-28T04:06:00;18.10;99.90
18229;DHT22;9239;50.932;3.142;2023-07-28T04:08:27;18.00;99.90
18229;DHT22;9239;50.932;3.142;2023-07-28T04:10:54;18.00;99.90
18229;DHT22;9239;50.932;3.142;2023-07-28T04:13:21;18.00;99.90
18229;DHT22;9239;50.932;3.142;2023-07-28T04:15:48;18.00;99.90
18229;DHT22;9239;50.932;3.142;2023-07-28T04:18:16;18.00;99.90
18229;DHT22;9239;50.932;3.142;2023-07-28T04:20:43;18.00;99.90
18229;DHT22;9239;50.932;3.142;2023-07-28T04:23:10;18.00;99.90
18229;DHT22;9239;50.932;3.142;2023-07-28T04:25:37;18.00;99.90
18229;DHT22;9239;50.932;3.142;2023-07-28T04:28:04;18.00;99.90
18229;DHT22;9239;50.932;3.142;2023-07-28T04:30:31;18.00;99.90
18229;DHT22;9239;50.932;3.142;2023-07-28T04:32:58;18.00;99.90
18229;DHT22;9239;50.932;3.142;2023-07-28T04:35:26;18.00;99.90
18229;DHT22;9239;50.932;3.142;2023-07-28T04:37:53;18.00;99.90
18229;DHT22;9239;50.932;3.142;2023-07-28T04:40:20;18.00;99.90
18229;DHT22;9239;50.932;3.142;2023-07-28T04:42:47;18.00;99.90
18229;DHT22;9239;50.932;3.142;2023-07-28T04:45:18;17.90;99.90
18229;DHT22;9239;50.932;3.142;2023-07-28T04:47:45;18.00;99.90
18229;DHT22;9239;50.932;3.142;2023-07-28T04:50:12;18.00;99.90
18229;DHT22;9239;50.932;3.142;2023-07-28T04:52:40;18.00;99.90
18229;DHT22;9239;50.932;3.142;2023-07-28T04:55:08;18.00;99.90
18229;DHT22;9239;50.932;3.142;2023-07-28T04:57:35;18.10;99.90
18229;DHT22;9239;50.932;3.142;2023-07-28T05:00:02;18.00;99.90
18229;DHT22;9239;50.932;3.142;2023-07-28T05:02:29;18.10;99.90
18229;DHT22;9239;50.932;3.142;2023-07-28T05:04:56;18.10;99.90
18229;DHT22;9239;50.932;3.142;2023-07-28T05:07:23;18.00;99.90
18229;DHT22;9239;50.932;3.142;2023-07-28T05:09:52;18.00;99.90
18229;DHT22;9239;50.932;3.142;2023-07-28T05:12:19;18.00;99.90
18229;DHT22;9239;50.932;3.142;2023-07-28T05:14:46;18.00;99.90
18229;DHT22;9239;50.932;3.142;2023-07-28T05:17:13;18.10;99.90
18229;DHT22;9239;50.932;3.142;2023-07-28T05:19:40;18.00;99.90
18229;DHT22;9239;50.932;3.142;2023-07-28T05:22:07;18.00;99.90
18229;DHT22;9239;50.932;3.142;2023-07-28T05:24:34;18.00;99.90
18229;DHT22;9239;50.932;3.142;2023-07-28T05:27:03;18.00;99.90
18229;DHT22;9239;50.932;3.142;2023-07-28T05:29:30;18.00;99.90
18229;DHT22;9239;50.932;3.142;2023-07-28T05:31:58;18.00;99.90
18229;DHT22;9239;50.932;3.142;2023-07-28T05:34:25;18.00;99.90
18229;DHT22;9239;50.932;3.142;2023-07-28T05:36:52;18.00;99.90
18229;DHT22;9239;50.932;3.142;2023-07-28T05:39:19;18.00;99.90
18229;DHT22;9239;50.932;3.142;2023-07-28T05:41:46;18.00;99.90
18229;DHT22;9239;50.932;3.142;2023-07-28T05:44:15;18.00;99.90
18229;DHT22;9239;50.932;3.142;2023-07-28T05:46:41;18.00;99.90
18229;DHT22;9239;50.932;3.142;2023-07-28T05:49:08;18.00;99.90
18229;DHT22;9239;50.932;3.142;2023-07-28T05:51:35;18.00;99.90
18229;DHT22;9239;50.932;3.142;2023-07-28T05:54:02;18.00;99.90
18229;DHT22;9239;50.932;3.142;2023-07-28T05:56:29;18.00;99.90
18229;DHT22;9239;50.932;3.142;2023-07-28T05:58:56;18.00;99.90
18229;DHT22;9239;50.932;3.142;2023-07-28T06:01:25;18.00;99.90
18229;DHT22;9239;50.932;3.142;2023-07-28T06:03:52;17.90;99.90
18229;DHT22;9239;50.932;3.142;2023-07-28T06:06:24;17.90;99.90
18229;DHT22;9239;50.932;3.142;2023-07-28T06:08:51;17.90;99.90
18229;DHT22;9239;50.932;3.142;2023-07-28T06:11:18;18.00;99.90
18229;DHT22;9239;50.932;3.142;2023-07-28T06:13:45;18.00;99.90
18229;DHT22;9239;50.932;3.142;2023-07-28T06:16:12;18.00;99.90
18229;DHT22;9239;50.932;3.142;2023-07-28T06:18:41;18.00;99.90
18229;DHT22;9239;50.932;3.142;2023-07-28T06:21:08;18.00;99.90
18229;DHT22;9239;50.932;3.142;2023-07-28T06:23:35;18.00;99.90
18229;DHT22;9239;50.932;3.142;2023-07-28T06:26:02;18.00;99.90
18229;DHT22;9239;50.932;3.142;2023-07-28T06:28:29;18.10;99.90
18229;DHT22;9239;50.932;3.142;2023-07-28T06:30:56;18.20;99.90
18229;DHT22;9239;50.932;3.142;2023-07-28T06:33:24;18.10;99.90
18229;DHT22;9239;50.932;3.142;2023-07-28T06:35:52;18.10;99.90
18229;DHT22;9239;50.932;3.142;2023-07-28T06:38:19;18.20;99.90
18229;DHT22;9239;50.932;3.142;2023-07-28T06:40:46;18.20;99.90
18229;DHT22;9239;50.932;3.142;2023-07-28T06:43:13;18.30;99.90
18229;DHT22;9239;50.932;3.142;2023-07-28T06:45:40;18.30;99.90
18229;DHT22;9239;50.932;3.142;2023-07-28T06:48:07;18.40;99.90
18229;DHT22;9239;50.932;3.142;2023-07-28T06:50:34;18.40;99.90
18229;DHT22;9239;50.932;3.142;2023-07-28T06:53:02;18.40;99.90
18229;DHT22;9239;50.932;3.142;2023-07-28T06:55:30;18.50;99.90
18229;DHT22;9239;50.932;3.142;2023-07-28T06:57:57;18.50;99.90
18229;DHT22;9239;50.932;3.142;2023-07-28T07:00:24;18.60;99.90
18229;DHT22;9239;50.932;3.142;2023-07-28T07:02:51;18.70;99.90
18229;DHT22;9239;50.932;3.142;2023-07-28T07:05:18;18.80;99.90
18229;DHT22;9239;50.932;3.142;2023-07-28T07:07:45;18.70;99.90
18229;DHT22;9239;50.932;3.142;2023-07-28T07:10:14;18.70;99.90
18229;DHT22;9239;50.932;3.142;2023-07-28T07:12:41;18.80;99.90
18229;DHT22;9239;50.932;3.142;2023-07-28T07:15:08;18.90;99.90
18229;DHT22;9239;50.932;3.142;2023-07-28T07:17:37;19.00;99.90
18229;DHT22;9239;50.932;3.142;2023-07-28T07:20:06;19.10;99.90
18229;DHT22;9239;50.932;3.142;2023-07-28T07:22:33;19.20;99.90
18229;DHT22;9239;50.932;3.142;2023-07-28T07:25:00;19.20;99.90
18229;DHT22;9239;50.932;3.142;2023-07-28T07:27:29;19.20;99.90
18229;DHT22;9239;50.932;3.142;2023-07-28T07:29:56;19.20;99.90
18229;DHT22;9239;50.932;3.142;2023-07-28T07:32:23;19.20;99.90
18229;DHT22;9239;50.932;3.142;2023-07-28T07:34:50;19.10;99.90
18229;DHT22;9239;50.932;3.142;2023-07-28T07:37:18;19.00;99.90
18229;DHT22;9239;50.932;3.142;2023-07-28T07:39:45;19.00;99.90
18229;DHT22;9239;50.932;3.142;2023-07-28T07:42:12;19.00;99.90
18229;DHT22;9239;50.932;3.142;2023-07-28T07:44:41;18.90;99.90
18229;DHT22;9239;50.932;3.142;2023-07-28T07:47:15;18.90;99.90
18229;DHT22;9239;50.932;3.142;2023-07-28T07:49:42;18.80;99.90
18229;DHT22;9239;50.932;3.142;2023-07-28T07:52:09;18.90;99.90
18229;DHT22;9239;50.932;3.142;2023-07-28T07:54:36;18.90;99.90
18229;DHT22;9239;50.932;3.142;2023-07-28T07:57:04;18.90;99.90
18229;DHT22;9239;50.932;3.142;2023-07-28T07:59:31;18.90;99.90
18229;DHT22;9239;50.932;3.142;2023-07-28T08:02:00;18.90;99.90
18229;DHT22;9239;50.932;3.142;2023-07-28T08:06:57;18.90;99.90
18229;DHT22;9239;50.932;3.142;2023-07-28T08:09:24;18.80;99.90
18229;DHT22;9239;50.932;3.142;2023-07-28T08:11:51;18.90;99.90
18229;DHT22;9239;50.932;3.142;2023-07-28T08:14:18;18.90;99.90
18229;DHT22;9239;50.932;3.142;2023-07-28T08:16:45;18.90;99.90
18229;DHT22;9239;50.932;3.142;2023-07-28T08:19:14;19.00;99.90
18229;DHT22;9239;50.932;3.142;2023-07-28T08:21:41;19.00;99.90
18229;DHT22;9239;50.932;3.142;2023-07-28T08:24:08;19.00;99.90
18229;DHT22;9239;50.932;3.142;2023-07-28T08:26:34;19.00;99.90
18229;DHT22;9239;50.932;3.142;2023-07-28T08:29:01;19.00;99.90
18229;DHT22;9239;50.932;3.142;2023-07-28T08:31:28;19.00;99.90
18229;DHT22;9239;50.932;3.142;2023-07-28T08:33:55;19.00;99.90
18229;DHT22;9239;50.932;3.142;2023-07-28T08:36:23;18.90;99.90
18229;DHT22;9239;50.932;3.142;2023-07-28T08:38:52;18.90;99.90
18229;DHT22;9239;50.932;3.142;2023-07-28T08:41:19;18.90;99.90
18229;DHT22;9239;50.932;3.142;2023-07-28T08:43:46;18.90;99.90
18229;DHT22;9239;50.932;3.142;2023-07-28T08:46:13;19.00;99.90
18229;DHT22;9239;50.932;3.142;2023-07-28T08:48:40;19.20;99.90
18229;DHT22;9239;50.932;3.142;2023-07-28T08:51:07;19.30;99.90
18229;DHT22;9239;50.932;3.142;2023-07-28T08:53:38;19.40;99.90
18229;DHT22;9239;50.932;3.142;2023-07-28T08:56:05;19.50;99.90
18229;DHT22;9239;50.932;3.142;2023-07-28T08:58:32;19.50;99.90
18229;DHT22;9239;50.932;3.142;2023-07-28T09:00:59;19.60;99.90
18229;DHT22;9239;50.932;3.142;2023-07-28T09:03:27;19.60;99.90
18229;DHT22;9239;50.932;3.142;2023-07-28T09:05:59;19.70;99.90
18229;DHT22;9239;50.932;3.142;2023-07-28T09:08:26;19.70;99.90
18229;DHT22;9239;50.932;3.142;2023-07-28T09:10:55;19.70;99.90
18229;DHT22;9239;50.932;3.142;2023-07-28T09:13:22;19.70;99.90
18229;DHT22;9239;50.932;3.142;2023-07-28T09:15:49;19.80;99.90
18229;DHT22;9239;50.932;3.142;2023-07-28T09:18:17;19.90;99.90
18229;DHT22;9239;50.932;3.142;2023-07-28T09:20:44;20.00;99.90
18229;DHT22;9239;50.932;3.142;2023-07-28T09:23:13;20.20;99.90
18229;DHT22;9239;50.932;3.142;2023-07-28T09:25:41;20.40;99.90
18229;DHT22;9239;50.932;3.142;2023-07-28T09:28:09;20.50;99.90
18229;DHT22;9239;50.932;3.142;2023-07-28T09:30:45;20.60;99.90
18229;DHT22;9239;50.932;3.142;2023-07-28T09:33:13;20.60;99.90
18229;DHT22;9239;50.932;3.142;2023-07-28T09:35:50;20.70;99.90
18229;DHT22;9239;50.932;3.142;2023-07-28T09:38:18;20.70;99.90
18229;DHT22;9239;50.932;3.142;2023-07-28T09:40:46;20.80;99.90
18229;DHT22;9239;50.932;3.142;2023-07-28T09:43:14;20.80;99.90
18229;DHT22;9239;50.932;3.142;2023-07-28T09:45:42;20.70;99.90
18229;DHT22;9239;50.932;3.142;2023-07-28T09:48:10;20.50;99.90
18229;DHT22;9239;50.932;3.142;2023-07-28T09:50:40;20.50;99.90
18229;DHT22;9239;50.932;3.142;2023-07-28T09:53:09;20.40;99.90
18229;DHT22;9239;50.932;3.142;2023-07-28T09:55:38;20.40;99.90
18229;DHT22;9239;50.932;3.142;2023-07-28T09:58:09;20.30;99.90
18229;DHT22;9239;50.932;3.142;2023-07-28T10:00:39;20.20;99.90
18229;DHT22;9239;50.932;3.142;2023-07-28T10:03:07;20.20;99.90
18229;DHT22;9239;50.932;3.142;2023-07-28T10:05:35;20.20;99.90
18229;DHT22;9239;50.932;3.142;2023-07-28T10:08:03;20.10;99.90
18229;DHT22;9239;50.932;3.142;2023-07-28T10:10:31;20.20;99.90
18229;DHT22;9239;50.932;3.142;2023-07-28T10:12:59;20.20;99.90
18229;DHT22;9239;50.932;3.142;2023-07-28T10:15:30;20.20;99.90
18229;DHT22;9239;50.932;3.142;2023-07-28T10:17:59;20.20;99.90
18229;DHT22;9239;50.932;3.142;2023-07-28T10:20:31;20.30;99.90
18229;DHT22;9239;50.932;3.142;2023-07-28T10:23:07;20.40;99.90
18229;DHT22;9239;50.932;3.142;2023-07-28T10:25:35;20.40;99.90
18229;DHT22;9239;50.932;3.142;2023-07-28T10:28:04;20.40;99.90
18229;DHT22;9239;50.932;3.142;2023-07-28T10:30:35;20.50;99.90
18229;DHT22;9239;50.932;3.142;2023-07-28T10:33:04;20.50;99.90
18229;DHT22;9239;50.932;3.142;2023-07-28T10:35:31;20.60;99.90
18229;DHT22;9239;50.932;3.142;2023-07-28T10:38:33;20.60;99.90
18229;DHT22;9239;50.932;3.142;2023-07-28T10:41:07;20.60;99.90
18229;DHT22;9239;50.932;3.142;2023-07-28T10:43:35;20.70;99.90
18229;DHT22;9239;50.932;3.142;2023-07-28T10:46:02;20.60;99.90
18229;DHT22;9239;50.932;3.142;2023-07-28T10:48:32;20.60;99.90
18229;DHT22;9239;50.932;3.142;2023-07-28T10:50:59;20.60;99.90
18229;DHT22;9239;50.932;3.142;2023-07-28T10:53:26;20.60;99.90
18229;DHT22;9239;50.932;3.142;2023-07-28T10:55:53;20.50;99.90
18229;DHT22;9239;50.932;3.142;2023-07-28T10:58:20;20.50;99.90
18229;DHT22;9239;50.932;3.142;2023-07-28T11:00:47;20.60;99.90
18229;DHT22;9239;50.932;3.142;2023-07-28T11:03:16;20.70;99.90
18229;DHT22;9239;50.932;3.142;2023-07-28T11:05:45;20.80;99.90
18229;DHT22;9239;50.932;3.142;2023-07-28T11:08:14;20.80;99.90
18229;DHT22;9239;50.932;3.142;2023-07-28T11:10:41;20.90;99.90
18229;DHT22;9239;50.932;3.142;2023-07-28T11:13:08;21.00;99.90
18229;DHT22;9239;50.932;3.142;2023-07-28T11:15:35;21.10;99.90
18229;DHT22;9239;50.932;3.142;2023-07-28T11:18:03;21.30;99.90
18229;DHT22;9239;50.932;3.142;2023-07-28T11:20:30;21.40;99.90
18229;DHT22;9239;50.932;3.142;2023-07-28T11:23:00;21.50;99.90
18229;DHT22;9239;50.932;3.142;2023-07-28T11:25:28;21.70;99.90
18229;DHT22;9239;50.932;3.142;2023-07-28T11:27:55;21.80;99.90
18229;DHT22;9239;50.932;3.142;2023-07-28T11:30:23;21.90;99.90
18229;DHT22;9239;50.932;3.142;2023-07-28T11:32:51;22.00;99.90
18229;DHT22;9239;50.932;3.142;2023-07-28T11:35:20;22.10;99.90
18229;DHT22;9239;50.932;3.142;2023-07-28T11:37:49;22.10;99.90
18229;DHT22;9239;50.932;3.142;2023-07-28T11:40:21;22.10;99.90
18229;DHT22;9239;50.932;3.142;2023-07-28T11:42:50;22.10;99.90
18229;DHT22;9239;50.932;3.142;2023-07-28T11:45:19;22.10;99.90
18229;DHT22;9239;50.932;3.142;2023-07-28T11:47:58;22.10;99.90
18229;DHT22;9239;50.932;3.142;2023-07-28T11:50:26;22.10;99.90
18229;DHT22;9239;50.932;3.142;2023-07-28T11:52:54;22.20;99.90
18229;DHT22;9239;50.932;3.142;2023-07-28T11:55:23;22.30;99.90
18229;DHT22;9239;50.932;3.142;2023-07-28T11:57:51;22.40;99.90
18229;DHT22;9239;50.932;3.142;2023-07-28T12:00:19;22.30;99.90
18229;DHT22;9239;50.932;3.142;2023-07-28T12:03:01;22.30;99.90
18229;DHT22;9239;50.932;3.142;2023-07-28T12:05:29;22.20;99.90
18229;DHT22;9239;50.932;3.142;2023-07-28T12:07:56;22.00;99.90
18229;DHT22;9239;50.932;3.142;2023-07-28T12:10:25;21.90;99.90
18229;DHT22;9239;50.932;3.142;2023-07-28T12:12:52;21.90;99.90
18229;DHT22;9239;50.932;3.142;2023-07-28T12:15:20;21.90;99.90
18229;DHT22;9239;50.932;3.142;2023-07-28T12:18:08;21.90;99.90
18229;DHT22;9239;50.932;3.142;2023-07-28T12:20:37;22.00;99.90
18229;DHT22;9239;50.932;3.142;2023-07-28T12:23:04;22.00;99.90
18229;DHT22;9239;50.932;3.142;2023-07-28T12:25:33;22.10;99.90
18229;DHT22;9239;50.932;3.142;2023-07-28T12:28:00;22.10;99.90
18229;DHT22;9239;50.932;3.142;2023-07-28T12:30:27;22.00;99.90
18229;DHT22;9239;50.932;3.142;2023-07-28T12:32:54;22.00;99.90
18229;DHT22;9239;50.932;3.142;2023-07-28T12:35:21;21.90;99.90
18229;DHT22;9239;50.932;3.142;2023-07-28T12:37:50;21.90;99.90
18229;DHT22;9239;50.932;3.142;2023-07-28T12:40:17;22.00;99.90
18229;DHT22;9239;50.932;3.142;2023-07-28T12:42:47;22.10;99.90
18229;DHT22;9239;50.932;3.142;2023-07-28T12:45:14;22.20;99.90
18229;DHT22;9239;50.932;3.142;2023-07-28T12:47:41;22.30;99.90
18229;DHT22;9239;50.932;3.142;2023-07-28T12:50:09;22.40;99.90
18229;DHT22;9239;50.932;3.142;2023-07-28T12:52:36;22.40;99.90
18229;DHT22;9239;50.932;3.142;2023-07-28T12:55:03;22.50;99.90
18229;DHT22;9239;50.932;3.142;2023-07-28T12:57:30;22.50;99.90
18229;DHT22;9239;50.932;3.142;2023-07-28T12:59:59;22.50;99.90
18229;DHT22;9239;50.932;3.142;2023-07-28T13:02:26;22.50;99.90
18229;DHT22;9239;50.932;3.142;2023-07-28T13:04:53;22.60;99.90
18229;DHT22;9239;50.932;3.142;2023-07-28T13:07:20;22.60;99.90
18229;DHT22;9239;50.932;3.142;2023-07-28T13:09:48;22.60;99.90
18229;DHT22;9239;50.932;3.142;2023-07-28T13:12:15;22.60;99.90
18229;DHT22;9239;50.932;3.142;2023-07-28T13:14:42;22.70;99.90
18229;DHT22;9239;50.932;3.142;2023-07-28T13:17:10;22.80;99.90
18229;DHT22;9239;50.932;3.142;2023-07-28T13:19:38;23.00;99.90
18229;DHT22;9239;50.932;3.142;2023-07-28T13:22:05;23.10;99.90
18229;DHT22;9239;50.932;3.142;2023-07-28T13:24:32;23.10;99.90
18229;DHT22;9239;50.932;3.142;2023-07-28T13:26:59;23.10;99.90
18229;DHT22;9239;50.932;3.142;2023-07-28T13:29:26;23.00;99.90
18229;DHT22;9239;50.932;3.142;2023-07-28T13:31:57;22.90;99.90
18229;DHT22;9239;50.932;3.142;2023-07-28T13:34:27;22.90;99.90
18229;DHT22;9239;50.932;3.142;2023-07-28T13:36:54;22.80;99.90
18229;DHT22;9239;50.932;3.142;2023-07-28T13:39:22;22.90;99.90
18229;DHT22;9239;50.932;3.142;2023-07-28T13:41:49;23.10;99.90
18229;DHT22;9239;50.932;3.142;2023-07-28T13:44:16;23.20;99.90
18229;DHT22;9239;50.932;3.142;2023-07-28T13:46:42;23.20;99.90
18229;DHT22;9239;50.932;3.142;2023-07-28T13:49:09;23.40;99.90
18229;DHT22;9239;50.932;3.142;2023-07-28T13:51:37;23.50;99.90
18229;DHT22;9239;50.932;3.142;2023-07-28T13:54:04;23.50;99.90
18229;DHT22;9239;50.932;3.142;2023-07-28T13:56:31;23.60;99.90
18229;DHT22;9239;50.932;3.142;2023-07-28T13:58:58;23.70;99.90
18229;DHT22;9239;50.932;3.142;2023-07-28T14:01:25;23.90;99.90
18229;DHT22;9239;50.932;3.142;2023-07-28T14:03:52;23.90;99.90
18229;DHT22;9239;50.932;3.142;2023-07-28T14:06:19;24.00;99.90
18229;DHT22;9239;50.932;3.142;2023-07-28T14:08:47;24.00;99.90
18229;DHT22;9239;50.932;3.142;2023-07-28T14:11:14;24.00;99.90
18229;DHT22;9239;50.932;3.142;2023-07-28T14:13:41;24.00;99.90
18229;DHT22;9239;50.932;3.142;2023-07-28T14:16:08;24.10;99.90
18229;DHT22;9239;50.932;3.142;2023-07-28T14:18:35;24.20;99.90
18229;DHT22;9239;50.932;3.142;2023-07-28T14:21:02;24.20;99.90
18229;DHT22;9239;50.932;3.142;2023-07-28T14:23:29;24.20;99.90
18229;DHT22;9239;50.932;3.142;2023-07-28T14:25:57;24.00;99.90
18229;DHT22;9239;50.932;3.142;2023-07-28T14:28:24;24.00;99.90
18229;DHT22;9239;50.932;3.142;2023-07-28T14:30:51;24.00;99.90
18229;DHT22;9239;50.932;3.142;2023-07-28T14:33:18;24.10;99.90
18229;DHT22;9239;50.932;3.142;2023-07-28T14:35:47;24.10;99.90
18229;DHT22;9239;50.932;3.142;2023-07-28T14:38:14;24.10;99.90
18229;DHT22;9239;50.932;3.142;2023-07-28T14:40:42;24.20;99.90
18229;DHT22;9239;50.932;3.142;2023-07-28T14:43:14;24.30;99.90
18229;DHT22;9239;50.932;3.142;2023-07-28T14:45:42;24.60;99.90
18229;DHT22;9239;50.932;3.142;2023-07-28T14:48:09;24.70;99.90
18229;DHT22;9239;50.932;3.142;2023-07-28T14:50:36;24.90;99.90
18229;DHT22;9239;50.932;3.142;2023-07-28T14:53:03;24.80;99.90
18229;DHT22;9239;50.932;3.142;2023-07-28T14:55:29;24.60;99.90
18229;DHT22;9239;50.932;3.142;2023-07-28T14:57:56;24.50;99.90
18229;DHT22;9239;50.932;3.142;2023-07-28T15:00:24;24.50;99.90
18229;DHT22;9239;50.932;3.142;2023-07-28T15:02:51;24.50;99.90
18229;DHT22;9239;50.932;3.142;2023-07-28T15:05:18;24.70;99.90
18229;DHT22;9239;50.932;3.142;2023-07-28T15:07:45;24.80;99.90
18229;DHT22;9239;50.932;3.142;2023-07-28T15:10:12;24.80;99.90
18229;DHT22;9239;50.932;3.142;2023-07-28T15:12:39;24.80;99.90
18229;DHT22;9239;50.932;3.142;2023-07-28T15:15:07;24.60;99.90
18229;DHT22;9239;50.932;3.142;2023-07-28T15:17:35;24.50;99.90
18229;DHT22;9239;50.932;3.142;2023-07-28T15:20:02;24.50;99.90
18229;DHT22;9239;50.932;3.142;2023-07-28T15:22:29;24.50;99.90
18229;DHT22;9239;50.932;3.142;2023-07-28T15:24:58;24.50;99.90
18229;DHT22;9239;50.932;3.142;2023-07-28T15:27:25;24.50;99.90
18229;DHT22;9239;50.932;3.142;2023-07-28T15:29:52;24.40;99.90
18229;DHT22;9239;50.932;3.142;2023-07-28T15:32:19;24.40;99.90
18229;DHT22;9239;50.932;3.142;2023-07-28T15:34:47;24.50;99.90
18229;DHT22;9239;50.932;3.142;2023-07-28T15:37:14;24.50;99.90
18229;DHT22;9239;50.932;3.142;2023-07-28T15:39:41;24.50;99.90
18229;DHT22;9239;50.932;3.142;2023-07-28T15:42:08;24.40;99.90
18229;DHT22;9239;50.932;3.142;2023-07-28T15:44:35;24.30;99.90
18229;DHT22;9239;50.932;3.142;2023-07-28T15:47:02;24.30;99.90
18229;DHT22;9239;50.932;3.142;2023-07-28T15:49:29;24.50;99.90
18229;DHT22;9239;50.932;3.142;2023-07-28T15:51:57;24.60;99.90